Repto Arenas, Puerto Rico
Current Conditions -  °F | °C
As of 12:50 PM on Friday 31 Oct 2014 (Local Time) from TJBQ Reporting Station
Broken Clouds Broken Clouds  
Wind Chill: 86°   Ceiling: 8000
Heat Index: 95°   Visibility: 10mi
Dew Point: 75°   Wind: 9mph
Humidity: 70%   Direction: 280°W
Pressure: 29.87"   Gusts: NA
Location:  18.0306°N, 66.8507°W
Report Text: TJBQ 311650Z 28008KT 10SM SCT041 SCT050 BKN080 30/24 A2987 RMK RWY26 - ATIS Q
Loading
Personal Weather Stations






























Interactive Weather Map
Tropical Storm Tracking
New forecast layout! Learn more

10-Day Weather Forecast

Advertisements
Track Severe Weather on mobile